createdAt,value
2022-10-03T00:01:09.441Z,5.25
2022-10-03T00:03:54.460Z,12.05
2022-10-03T00:06:22.794Z,8.32
2022-10-03T00:09:18.774Z,11.75
2022-10-03T00:11:59.726Z,7.82
2022-10-03T00:14:53.060Z,11.88
2022-10-03T00:17:50.915Z,8.02
2022-10-03T00:20:46.217Z,9.95
2022-10-03T00:23:35.826Z,7.07
2022-10-03T00:26:27.683Z,4.68
2022-10-03T00:29:19.354Z,7.22
2022-10-03T00:31:50.019Z,15.68
2022-10-03T00:34:22.842Z,10.48
2022-10-03T00:37:17.466Z,12.85
2022-10-03T00:40:06.133Z,7.78
2022-10-03T00:43:01.741Z,8.23
2022-10-03T00:46:04.395Z,5.80
2022-10-03T00:48:47.887Z,9.97
2022-10-03T00:51:23.508Z,8.48
2022-10-03T00:57:53.462Z,9.60
2022-10-03T01:00:24.854Z,8.50
2022-10-03T01:03:27.797Z,12.40
2022-10-03T01:06:28.620Z,12.48
2022-10-03T01:09:56.853Z,8.00
2022-10-03T01:12:54.133Z,10.57
2022-10-03T01:15:43.156Z,5.15
2022-10-03T01:18:45.796Z,10.60
2022-10-03T01:21:32.021Z,5.75
2022-10-03T01:24:49.472Z,5.68
2022-10-03T01:27:32.535Z,12.43
2022-10-03T01:30:24.118Z,7.32
2022-10-03T01:32:59.727Z,10.73
2022-10-03T01:35:36.099Z,12.10
2022-10-03T01:38:28.821Z,5.90
2022-10-03T01:41:11.681Z,9.30
2022-10-03T01:43:47.844Z,5.85
2022-10-03T01:46:28.987Z,8.75
2022-10-03T01:49:21.678Z,8.40
2022-10-03T01:52:28.833Z,12.35
2022-10-03T01:55:03.479Z,8.30
2022-10-03T01:57:37.013Z,9.88
2022-10-03T02:00:22.651Z,6.05
2022-10-03T02:03:20.567Z,8.68
2022-10-03T02:06:06.778Z,9.20
2022-10-03T02:08:46.143Z,6.93
2022-10-03T02:11:29.676Z,6.32
2022-10-03T02:20:54.053Z,5.28
2022-10-03T02:23:32.833Z,7.13
2022-10-03T02:26:45.037Z,10.90
2022-10-03T02:29:51.381Z,9.20
2022-10-03T02:39:53.983Z,10.70
2022-10-03T02:42:46.911Z,11.13
2022-10-03T02:45:26.878Z,7.57
2022-10-03T02:48:52.755Z,4.47
2022-10-03T02:51:49.625Z,14.00
2022-10-03T02:54:49.593Z,5.82
2022-10-03T02:58:02.124Z,10.05
2022-10-03T03:00:58.841Z,8.07
2022-10-03T03:03:46.765Z,6.90
2022-10-03T03:06:32.339Z,6.30
2022-10-03T03:09:23.290Z,6.65
2022-10-03T03:11:59.253Z,6.78
2022-10-03T03:14:47.813Z,4.13
2022-10-03T03:17:31.106Z,6.50
2022-10-03T03:20:22.681Z,7.05
2022-10-03T03:23:10.869Z,5.35
2022-10-03T03:26:04.763Z,9.02
2022-10-03T03:29:01.238Z,9.45
2022-10-03T03:32:18.608Z,7.07
2022-10-03T03:35:24.679Z,8.50
2022-10-03T03:38:14.250Z,10.93
2022-10-03T03:41:03.051Z,9.63
2022-10-03T03:43:50.407Z,13.70
2022-10-03T03:46:45.765Z,7.50
2022-10-03T03:49:53.506Z,14.70
2022-10-03T03:52:41.858Z,7.18
2022-10-03T03:55:24.124Z,8.80
2022-10-03T03:58:45.186Z,6.53
2022-10-03T04:01:31.675Z,7.43
2022-10-03T04:04:15.741Z,7.65
2022-10-03T04:07:22.374Z,9.00
2022-10-03T04:10:49.593Z,4.05
2022-10-03T04:16:51.256Z,4.43
2022-10-03T04:20:07.188Z,5.22
2022-10-03T04:23:05.451Z,10.35
2022-10-03T04:26:00.580Z,5.85
2022-10-03T04:28:41.663Z,8.73
2022-10-03T04:31:31.937Z,5.07
2022-10-03T04:34:42.356Z,7.47
2022-10-03T04:37:29.024Z,5.47
2022-10-03T04:40:08.397Z,7.20
2022-10-03T04:43:00.107Z,7.15
2022-10-03T04:45:53.616Z,7.93
2022-10-03T04:48:45.517Z,5.20
2022-10-03T04:51:27.673Z,8.63
2022-10-03T04:54:40.662Z,12.27
2022-10-03T04:57:41.730Z,4.28
2022-10-03T05:00:33.503Z,7.95
2022-10-03T05:03:26.788Z,4.90
2022-10-03T05:06:04.648Z,8.57
2022-10-03T05:08:55.226Z,9.80
2022-10-03T05:11:56.388Z,9.27
2022-10-03T05:15:07.386Z,9.20
2022-10-03T05:17:46.217Z,8.40
2022-10-03T05:20:39.251Z,8.20
2022-10-03T05:23:41.738Z,5.10
2022-10-03T05:26:45.156Z,6.47
2022-10-03T05:29:27.681Z,7.50
2022-10-03T05:32:27.689Z,6.70
2022-10-03T05:35:31.076Z,10.30
2022-10-03T05:38:10.938Z,8.93
2022-10-03T05:40:48.858Z,8.55
2022-10-03T05:43:58.870Z,8.82
2022-10-03T05:46:38.907Z,16.08
2022-10-03T05:49:25.548Z,11.85
2022-10-03T05:52:23.758Z,10.48
2022-10-03T05:55:16.578Z,10.80
2022-10-03T05:58:43.436Z,7.25
2022-10-03T06:01:23.069Z,7.65
2022-10-03T06:07:22.787Z,14.68
2022-10-03T06:10:18.890Z,9.57
2022-10-03T06:14:01.120Z,6.40
2022-10-03T06:16:51.284Z,9.23
2022-10-03T06:19:31.193Z,10.60
2022-10-03T06:22:22.901Z,10.65
2022-10-03T06:25:47.145Z,13.15
2022-10-03T06:28:40.214Z,16.20
2022-10-03T06:31:46.306Z,15.13
2022-10-03T06:34:34.520Z,16.90
2022-10-03T06:37:30.934Z,17.63
2022-10-03T06:40:25.988Z,14.48
2022-10-03T06:42:58.754Z,15.23
2022-10-03T06:45:38.910Z,10.13
2022-10-03T06:48:47.586Z,11.43
2022-10-03T06:52:11.400Z,13.40
2022-10-03T06:55:02.974Z,19.60
2022-10-03T06:58:08.257Z,15.35
2022-10-03T07:01:30.612Z,15.60
2022-10-03T07:05:03.813Z,13.95
2022-10-03T07:10:35.152Z,11.98
2022-10-03T07:13:11.804Z,11.90
2022-10-03T07:18:56.309Z,18.27
2022-10-03T07:21:36.586Z,13.40
2022-10-03T07:24:29.715Z,11.50
2022-10-03T07:27:16.891Z,14.32
2022-10-03T07:30:12.086Z,12.73
2022-10-03T07:33:21.499Z,17.50
2022-10-03T07:36:32.446Z,16.30
2022-10-03T07:39:46.787Z,15.30
2022-10-03T07:42:21.236Z,9.43
2022-10-03T07:45:06.658Z,19.30
2022-10-03T07:47:44.826Z,12.13
2022-10-03T07:51:18.264Z,15.55
2022-10-03T07:53:47.875Z,12.80
2022-10-03T07:56:44.278Z,15.82
2022-10-03T07:59:55.010Z,20.00
2022-10-03T08:06:11.042Z,18.58
2022-10-03T08:08:57.740Z,18.27
2022-10-03T08:12:08.557Z,19.98
2022-10-03T08:14:58.203Z,14.05
2022-10-03T08:17:48.041Z,15.65
2022-10-03T08:20:33.198Z,29.77
2022-10-03T08:23:42.310Z,36.95
2022-10-03T08:26:20.881Z,20.52
2022-10-03T08:29:14.529Z,41.20
2022-10-03T08:32:01.534Z,29.75
2022-10-03T08:35:05.995Z,94.70
2022-10-03T08:38:24.938Z,128.10
2022-10-03T08:41:21.372Z,27.25
2022-10-03T08:44:15.811Z,38.15
2022-10-03T08:46:55.502Z,73.38
2022-10-03T08:50:13.848Z,32.00
2022-10-03T08:57:11.113Z,17.70
2022-10-03T09:00:02.085Z,17.65
2022-10-03T09:06:11.629Z,7.10
2022-10-03T09:08:57.759Z,8.15
2022-10-03T09:11:38.024Z,12.40
2022-10-03T09:14:19.815Z,11.80
2022-10-03T09:17:24.393Z,11.65
2022-10-03T09:19:58.413Z,10.32
2022-10-03T09:22:50.524Z,10.18
2022-10-03T09:25:19.770Z,12.73
2022-10-03T09:28:35.251Z,15.63
2022-10-03T09:31:14.803Z,10.43
2022-10-03T09:34:13.513Z,12.23
2022-10-03T09:37:00.554Z,12.85
2022-10-03T09:39:40.454Z,10.57
2022-10-03T09:42:31.171Z,13.60
2022-10-03T09:45:31.824Z,8.32
2022-10-03T09:48:48.112Z,10.32
2022-10-03T09:51:51.492Z,8.77
2022-10-03T09:55:02.834Z,10.77
2022-10-03T09:57:38.505Z,8.48
2022-10-03T10:00:16.529Z,10.95
2022-10-03T10:03:12.032Z,13.07
2022-10-03T10:06:11.424Z,11.63
2022-10-03T10:09:03.106Z,11.98
2022-10-03T10:12:01.898Z,14.43
2022-10-03T10:17:46.619Z,12.63
2022-10-03T10:20:39.284Z,10.60
2022-10-03T10:23:27.788Z,9.07
2022-10-03T10:26:30.593Z,14.13
2022-10-03T10:29:36.883Z,8.85
2022-10-03T10:32:23.699Z,13.35
2022-10-03T10:35:38.290Z,6.18
2022-10-03T10:38:18.906Z,14.05
2022-10-03T10:41:13.087Z,9.63
2022-10-03T10:43:45.828Z,10.20
2022-10-03T10:46:31.640Z,7.75
2022-10-03T10:49:46.186Z,7.10
2022-10-03T10:52:43.568Z,10.30
2022-10-03T10:55:53.551Z,10.02
2022-10-03T10:59:05.369Z,7.88
2022-10-03T11:02:22.687Z,10.60
2022-10-03T11:05:15.330Z,11.18
2022-10-03T11:08:18.428Z,9.40
2022-10-03T11:10:57.915Z,8.13
2022-10-03T11:13:41.781Z,10.00
2022-10-03T11:16:40.130Z,8.60
2022-10-03T11:19:50.576Z,6.10
2022-10-03T11:23:08.352Z,8.43
2022-10-03T11:26:14.191Z,6.47
2022-10-03T11:29:18.146Z,9.57
2022-10-03T11:32:19.657Z,9.20
2022-10-03T11:34:58.723Z,5.40
2022-10-03T11:37:33.041Z,6.35
2022-10-03T11:40:19.743Z,8.52
2022-10-03T11:46:26.789Z,9.00
2022-10-03T11:49:18.096Z,6.80
2022-10-03T11:52:08.295Z,8.63
2022-10-03T11:54:41.078Z,10.10
2022-10-03T11:57:14.592Z,8.43
2022-10-03T11:59:56.204Z,6.35
2022-10-03T12:02:47.345Z,3.92
2022-10-03T12:05:46.276Z,8.15
2022-10-03T12:08:44.941Z,10.77
2022-10-03T12:11:14.003Z,11.23
2022-10-03T12:13:57.572Z,7.95
2022-10-03T12:16:31.890Z,7.15
2022-10-03T12:19:18.031Z,6.63
2022-10-03T12:22:00.637Z,9.57
2022-10-03T12:25:06.541Z,6.78
2022-10-03T12:27:42.248Z,10.73
2022-10-03T12:30:18.062Z,9.10
2022-10-03T12:32:51.992Z,8.43
2022-10-03T12:35:45.950Z,6.10
2022-10-03T12:38:25.965Z,6.78
2022-10-03T12:45:10.980Z,8.60
2022-10-03T12:48:13.228Z,9.45
2022-10-03T12:50:55.107Z,8.38
2022-10-03T12:53:49.256Z,6.93
2022-10-03T12:56:25.208Z,6.35
2022-10-03T12:59:11.832Z,6.88
2022-10-03T13:02:03.546Z,11.07
2022-10-03T13:05:07.304Z,8.65
2022-10-03T13:07:52.373Z,5.50
2022-10-03T13:10:41.849Z,9.68
2022-10-03T13:13:27.901Z,7.95
2022-10-03T13:16:24.653Z,13.05
2022-10-03T13:19:17.423Z,8.13
2022-10-03T13:22:21.520Z,11.38
2022-10-03T13:25:00.867Z,6.70
2022-10-03T13:30:54.212Z,10.63
2022-10-03T13:33:33.524Z,8.30
2022-10-03T13:36:17.774Z,9.50
2022-10-03T13:38:58.714Z,4.78
2022-10-03T13:41:42.237Z,12.93
2022-10-03T13:44:50.288Z,9.40
2022-10-03T13:47:35.193Z,8.23
2022-10-03T13:50:13.748Z,7.93
2022-10-03T13:53:15.897Z,11.88
2022-10-03T13:56:02.281Z,10.82
2022-10-03T13:58:41.861Z,14.73
2022-10-03T14:01:25.588Z,10.15
2022-10-03T14:04:18.860Z,7.70
2022-10-03T14:07:02.009Z,9.85
2022-10-03T14:10:01.995Z,10.02
2022-10-03T14:12:50.993Z,4.00
2022-10-03T14:15:29.664Z,5.93
2022-10-03T14:18:23.352Z,8.05
2022-10-03T14:21:28.992Z,7.93
2022-10-03T14:24:02.835Z,4.93
2022-10-03T14:26:39.850Z,5.70
2022-10-03T14:29:51.757Z,7.70
2022-10-03T14:32:46.656Z,8.05
2022-10-03T14:35:53.087Z,8.75
2022-10-03T14:38:58.428Z,7.32
2022-10-03T14:41:32.990Z,7.97
2022-10-03T14:44:27.605Z,8.52
2022-10-03T14:47:00.576Z,11.40
2022-10-03T14:49:54.964Z,8.77
2022-10-03T14:52:28.040Z,14.90
2022-10-03T14:54:57.611Z,5.13
2022-10-03T14:58:08.855Z,11.45
2022-10-03T15:00:43.607Z,8.35
2022-10-03T15:03:16.985Z,10.30
2022-10-03T15:06:19.920Z,9.23
2022-10-03T15:08:52.200Z,5.47
2022-10-03T15:11:27.211Z,7.35
2022-10-03T15:14:26.997Z,11.52
2022-10-03T15:16:57.458Z,11.98
2022-10-03T15:20:22.513Z,6.88
2022-10-03T15:22:59.685Z,8.23
2022-10-03T15:25:48.357Z,9.65
2022-10-03T15:28:30.620Z,11.80
2022-10-03T15:31:14.453Z,10.27
2022-10-03T15:33:45.778Z,5.53
2022-10-03T15:36:25.553Z,11.27
2022-10-03T15:39:00.407Z,6.50
2022-10-03T15:41:36.015Z,11.43
2022-10-03T15:44:41.045Z,6.40
2022-10-03T15:47:29.327Z,7.20
2022-10-03T15:50:02.621Z,11.25
2022-10-03T15:52:46.918Z,5.47
2022-10-03T15:55:46.580Z,5.40
2022-10-03T15:58:25.430Z,9.90
2022-10-03T16:01:11.474Z,7.38
2022-10-03T16:03:47.971Z,14.57
2022-10-03T16:06:39.865Z,8.80
2022-10-03T16:09:30.684Z,8.25
2022-10-03T16:12:47.945Z,5.03
2022-10-03T16:18:50.941Z,7.15
2022-10-03T16:21:48.513Z,7.03
2022-10-03T16:24:32.739Z,6.63
2022-10-03T16:27:21.046Z,6.07
2022-10-03T16:30:11.965Z,3.45
2022-10-03T16:33:33.679Z,8.65
2022-10-03T16:36:05.090Z,9.63
2022-10-03T16:41:46.709Z,9.38
2022-10-03T16:44:25.078Z,11.63
2022-10-03T16:47:03.238Z,12.18
2022-10-03T16:50:05.415Z,9.75
2022-10-03T16:52:39.531Z,8.68
2022-10-03T16:58:29.369Z,3.72
2022-10-03T17:01:31.835Z,10.55
2022-10-03T17:04:15.810Z,6.97
2022-10-03T17:06:48.220Z,7.60
2022-10-03T17:09:47.022Z,8.85
2022-10-03T17:12:24.467Z,10.63
2022-10-03T17:14:56.337Z,6.32
2022-10-03T17:17:39.361Z,9.00
2022-10-03T17:23:37.186Z,7.35
2022-10-03T17:26:22.362Z,11.93
2022-10-03T17:28:57.507Z,15.73
2022-10-03T17:31:53.013Z,8.73
2022-10-03T17:34:23.513Z,9.88
2022-10-03T17:37:05.812Z,5.93
2022-10-03T17:39:54.081Z,5.07
2022-10-03T17:42:54.913Z,8.20
2022-10-03T17:48:54.928Z,10.88
2022-10-03T17:51:36.584Z,8.88
2022-10-03T17:54:16.738Z,10.73
2022-10-03T17:56:57.312Z,5.75
2022-10-03T17:59:32.796Z,7.00
2022-10-03T18:02:14.078Z,13.02
2022-10-03T18:04:45.060Z,11.82
2022-10-03T18:07:25.615Z,11.10
2022-10-03T18:09:54.629Z,12.70
2022-10-03T18:12:32.377Z,12.50
2022-10-03T18:19:21.575Z,10.82
2022-10-03T18:22:03.819Z,17.48
2022-10-03T18:24:49.202Z,10.00
2022-10-03T18:30:46.092Z,8.60
2022-10-03T18:33:20.671Z,11.30
2022-10-03T18:35:50.155Z,14.25
2022-10-03T18:38:23.614Z,18.40
2022-10-03T18:41:00.846Z,13.77
2022-10-03T18:43:36.932Z,12.65
2022-10-03T18:46:28.473Z,10.48
2022-10-03T18:52:10.931Z,10.45
2022-10-03T18:55:08.423Z,6.97
2022-10-03T18:57:57.032Z,8.63
2022-10-03T19:00:28.166Z,14.65
2022-10-03T19:03:08.036Z,8.82
2022-10-03T19:05:44.729Z,8.93
2022-10-03T19:08:19.020Z,8.40
2022-10-03T19:11:19.298Z,12.13
2022-10-03T19:14:19.058Z,11.35
2022-10-03T19:17:15.099Z,13.52
2022-10-03T19:20:12.753Z,13.65
2022-10-03T19:22:54.558Z,11.43
2022-10-03T19:28:32.546Z,11.98
2022-10-03T19:31:39.642Z,15.35
2022-10-03T19:34:31.764Z,10.48
2022-10-03T19:36:59.993Z,10.18
2022-10-03T19:39:29.929Z,9.85
2022-10-03T19:42:18.948Z,12.18
2022-10-03T19:44:46.988Z,14.48
2022-10-03T19:47:19.248Z,10.60
2022-10-03T19:50:06.407Z,8.32
2022-10-03T19:52:35.913Z,9.45
2022-10-03T19:55:12.535Z,7.28
2022-10-03T19:57:42.638Z,5.88
2022-10-03T20:00:27.449Z,9.48
2022-10-03T20:03:25.254Z,9.55
2022-10-03T20:09:30.689Z,8.38
2022-10-03T20:12:14.807Z,6.68
2022-10-03T20:14:43.268Z,9.07
2022-10-03T20:17:20.716Z,9.73
2022-10-03T20:19:54.767Z,8.68
2022-10-03T20:22:41.670Z,9.60
2022-10-03T20:25:25.528Z,4.95
2022-10-03T20:28:01.123Z,8.05
2022-10-03T20:30:45.146Z,6.72
2022-10-03T20:33:37.135Z,9.82
2022-10-03T20:36:17.597Z,5.63
2022-10-03T20:39:02.264Z,9.43
2022-10-03T20:41:56.050Z,7.63
2022-10-03T20:44:49.083Z,10.70
2022-10-03T20:47:35.559Z,5.85
2022-10-03T20:50:30.371Z,7.63
2022-10-03T20:52:58.888Z,9.00
2022-10-03T20:55:31.648Z,6.85
2022-10-03T20:58:13.207Z,7.25
2022-10-03T21:00:48.147Z,8.50
2022-10-03T21:03:17.953Z,10.00
2022-10-03T21:05:53.795Z,10.73
2022-10-03T21:08:33.026Z,10.93
2022-10-03T21:11:25.177Z,6.18
2022-10-03T21:14:11.929Z,6.65
2022-10-03T21:16:46.149Z,7.93
2022-10-03T21:19:20.076Z,5.32
2022-10-03T21:21:56.694Z,7.50
2022-10-03T21:24:49.006Z,8.05
2022-10-03T21:27:19.751Z,9.57
2022-10-03T21:30:01.668Z,7.75
2022-10-03T21:32:37.068Z,6.82
2022-10-03T21:35:26.711Z,11.93
2022-10-03T21:38:15.928Z,7.57
2022-10-03T21:41:23.453Z,7.30
2022-10-03T21:44:00.749Z,7.03
2022-10-03T21:46:52.894Z,9.45
2022-10-03T21:49:59.481Z,7.72
2022-10-03T21:53:13.423Z,9.57
2022-10-03T21:56:15.945Z,8.27
2022-10-03T21:58:51.800Z,6.22
2022-10-03T22:01:31.302Z,8.68
2022-10-03T22:04:23.258Z,6.43
2022-10-03T22:07:15.510Z,7.47
2022-10-03T22:09:53.737Z,9.20
2022-10-03T22:12:24.399Z,8.25
2022-10-03T22:14:54.546Z,8.63
2022-10-03T22:21:04.776Z,9.50
2022-10-03T22:23:54.010Z,11.10
2022-10-03T22:26:55.940Z,9.27
2022-10-03T22:29:33.516Z,12.30
2022-10-03T22:32:10.226Z,9.88
2022-10-03T22:34:44.785Z,10.60
2022-10-03T22:37:14.720Z,6.05
2022-10-03T22:39:43.215Z,8.15
2022-10-03T22:42:20.032Z,6.70
2022-10-03T22:44:52.088Z,7.35
2022-10-03T22:47:27.272Z,8.85
2022-10-03T22:53:23.780Z,5.95
2022-10-03T22:55:55.779Z,6.88
2022-10-03T22:58:24.939Z,5.18
2022-10-03T23:00:56.120Z,6.32
2022-10-03T23:03:26.774Z,6.25
2022-10-03T23:06:08.049Z,7.72
2022-10-03T23:08:53.677Z,12.85
2022-10-03T23:11:27.419Z,8.20
2022-10-03T23:13:57.782Z,5.47
2022-10-03T23:16:54.268Z,6.70
2022-10-03T23:22:58.370Z,7.00
2022-10-03T23:25:40.102Z,8.90
2022-10-03T23:28:39.243Z,6.30
2022-10-03T23:31:07.367Z,9.55
2022-10-03T23:33:35.047Z,9.18
2022-10-03T23:36:15.923Z,6.07
2022-10-03T23:39:38.190Z,8.02
2022-10-03T23:42:10.364Z,8.52
2022-10-03T23:45:14.863Z,5.68
2022-10-03T23:48:11.194Z,7.63
2022-10-03T23:50:46.654Z,6.40
2022-10-03T23:53:38.702Z,10.55
2022-10-03T23:56:21.882Z,9.55
2022-10-03T23:59:23.066Z,5.55
